sensor_id;sensor_type;location;lat;lon;timestamp;pressure;altitude;pressure_sealevel;temperature;humidity
72525;BME280;60547;48.502;8.996;2023-05-21T00:01:49;97485.13;;;14.01;90.35
72525;BME280;60547;48.502;8.996;2023-05-21T00:04:15;97490.72;;;14.01;90.39
72525;BME280;60547;48.502;8.996;2023-05-21T00:06:41;97484.50;;;14.06;90.46
72525;BME280;60547;48.502;8.996;2023-05-21T00:09:07;97480.78;;;14.00;90.57
72525;BME280;60547;48.502;8.996;2023-05-21T00:11:32;97482.66;;;13.94;91.01
72525;BME280;60547;48.502;8.996;2023-05-21T00:13:58;97480.16;;;13.96;90.70
72525;BME280;60547;48.502;8.996;2023-05-21T00:16:24;97477.84;;;13.85;91.14
72525;BME280;60547;48.502;8.996;2023-05-21T00:18:49;97479.84;;;13.94;91.38
72525;BME280;60547;48.502;8.996;2023-05-21T00:21:17;97485.44;;;13.94;91.29
72525;BME280;60547;48.502;8.996;2023-05-21T00:23:53;97480.47;;;13.88;91.18
72525;BME280;60547;48.502;8.996;2023-05-21T00:26:20;97475.53;;;13.83;91.15
72525;BME280;60547;48.502;8.996;2023-05-21T00:28:48;97478.94;;;13.87;91.06
72525;BME280;60547;48.502;8.996;2023-05-21T00:31:14;97482.06;;;13.80;91.54
72525;BME280;60547;48.502;8.996;2023-05-21T00:33:40;97465.44;;;13.77;91.53
72525;BME280;60547;48.502;8.996;2023-05-21T00:36:06;97470.56;;;13.78;91.42
72525;BME280;60547;48.502;8.996;2023-05-21T00:38:31;97465.75;;;13.70;91.65
72525;BME280;60547;48.502;8.996;2023-05-21T00:41:01;97470.09;;;13.71;91.80
72525;BME280;60547;48.502;8.996;2023-05-21T00:43:26;97472.44;;;13.63;92.50
72525;BME280;60547;48.502;8.996;2023-05-21T00:45:52;97464.53;;;13.62;92.03
72525;BME280;60547;48.502;8.996;2023-05-21T00:48:18;97471.50;;;13.66;92.34
72525;BME280;60547;48.502;8.996;2023-05-21T00:50:44;97468.56;;;13.61;92.53
72525;BME280;60547;48.502;8.996;2023-05-21T00:53:11;97466.41;;;13.55;92.76
72525;BME280;60547;48.502;8.996;2023-05-21T00:55:38;97466.41;;;13.55;92.48
72525;BME280;60547;48.502;8.996;2023-05-21T00:58:04;97460.34;;;13.48;92.81
72525;BME280;60547;48.502;8.996;2023-05-21T01:00:34;97469.03;;;13.50;92.66
72525;BME280;60547;48.502;8.996;2023-05-21T01:03:03;97464.69;;;13.49;92.64
72525;BME280;60547;48.502;8.996;2023-05-21T01:05:29;97469.97;;;13.47;92.64
72525;BME280;60547;48.502;8.996;2023-05-21T01:07:56;97463.91;;;13.39;92.58
72525;BME280;60547;48.502;8.996;2023-05-21T01:10:23;97467.03;;;13.41;92.87
72525;BME280;60547;48.502;8.996;2023-05-21T01:12:50;97468.88;;;13.35;92.95
72525;BME280;60547;48.502;8.996;2023-05-21T01:15:16;97459.41;;;13.33;92.96
72525;BME280;60547;48.502;8.996;2023-05-21T01:17:42;97452.28;;;13.32;93.12
72525;BME280;60547;48.502;8.996;2023-05-21T01:20:13;97456.16;;;13.34;93.03
72525;BME280;60547;48.502;8.996;2023-05-21T01:22:55;97462.22;;;13.33;92.99
72525;BME280;60547;48.502;8.996;2023-05-21T01:25:21;97456.31;;;13.31;92.64
72525;BME280;60547;48.502;8.996;2023-05-21T01:27:48;97461.28;;;13.27;93.25
72525;BME280;60547;48.502;8.996;2023-05-21T01:30:14;97458.19;;;13.24;93.61
72525;BME280;60547;48.502;8.996;2023-05-21T01:35:34;97459.09;;;13.21;94.13
72525;BME280;60547;48.502;8.996;2023-05-21T01:38:24;97451.97;;;13.20;94.33
72525;BME280;60547;48.502;8.996;2023-05-21T01:40:54;97448.56;;;13.16;94.10
72525;BME280;60547;48.502;8.996;2023-05-21T01:43:30;97444.06;;;13.19;94.48
72525;BME280;60547;48.502;8.996;2023-05-21T01:45:58;97452.13;;;13.17;94.50
72525;BME280;60547;48.502;8.996;2023-05-21T01:48:27;97445.56;;;13.11;94.21
72525;BME280;60547;48.502;8.996;2023-05-21T01:50:54;97432.38;;;13.11;94.52
72525;BME280;60547;48.502;8.996;2023-05-21T01:53:22;97446.34;;;13.11;94.32
72525;BME280;60547;48.502;8.996;2023-05-21T01:55:48;97443.09;;;13.13;94.15
72525;BME280;60547;48.502;8.996;2023-05-21T01:58:14;97446.03;;;13.09;94.25
72525;BME280;60547;48.502;8.996;2023-05-21T02:00:42;97441.84;;;13.14;94.10
72525;BME280;60547;48.502;8.996;2023-05-21T02:03:10;97435.00;;;13.06;93.98
72525;BME280;60547;48.502;8.996;2023-05-21T02:05:36;97444.94;;;13.07;94.23
72525;BME280;60547;48.502;8.996;2023-05-21T02:08:02;97437.66;;;13.00;94.37
72525;BME280;60547;48.502;8.996;2023-05-21T02:10:28;97439.03;;;13.05;94.17
72525;BME280;60547;48.502;8.996;2023-05-21T02:12:53;97439.97;;;13.02;93.96
72525;BME280;60547;48.502;8.996;2023-05-21T02:15:19;97440.13;;;12.98;94.32
72525;BME280;60547;48.502;8.996;2023-05-21T02:17:45;97448.50;;;12.98;94.28
72525;BME280;60547;48.502;8.996;2023-05-21T02:20:11;97439.50;;;12.94;94.34
72525;BME280;60547;48.502;8.996;2023-05-21T02:22:39;97440.91;;;12.89;94.94
72525;BME280;60547;48.502;8.996;2023-05-21T02:25:08;97441.97;;;12.92;94.66
72525;BME280;60547;48.502;8.996;2023-05-21T02:27:34;97439.81;;;12.87;94.77
72525;BME280;60547;48.502;8.996;2023-05-21T02:30:02;97433.91;;;12.85;94.62
72525;BME280;60547;48.502;8.996;2023-05-21T02:32:29;97429.25;;;12.82;94.58
72525;BME280;60547;48.502;8.996;2023-05-21T02:34:56;97418.06;;;12.73;94.57
72525;BME280;60547;48.502;8.996;2023-05-21T02:37:23;97424.28;;;12.77;94.79
72525;BME280;60547;48.502;8.996;2023-05-21T02:39:49;97427.53;;;12.75;95.13
72525;BME280;60547;48.502;8.996;2023-05-21T02:42:15;97425.97;;;12.74;95.02
72525;BME280;60547;48.502;8.996;2023-05-21T02:44:40;97431.56;;;12.74;94.86
72525;BME280;60547;48.502;8.996;2023-05-21T02:47:06;97422.56;;;12.70;94.83
72525;BME280;60547;48.502;8.996;2023-05-21T02:49:34;97424.56;;;12.70;94.95
72525;BME280;60547;48.502;8.996;2023-05-21T02:52:00;97426.41;;;12.64;95.30
72525;BME280;60547;48.502;8.996;2023-05-21T02:54:26;97427.97;;;12.65;95.48
72525;BME280;60547;48.502;8.996;2023-05-21T02:56:51;97426.41;;;12.64;95.16
72525;BME280;60547;48.502;8.996;2023-05-21T02:59:17;97429.81;;;12.58;94.81
72525;BME280;60547;48.502;8.996;2023-05-21T03:01:42;97423.00;;;12.59;94.92
72525;BME280;60547;48.502;8.996;2023-05-21T03:04:09;97429.97;;;12.55;95.26
72525;BME280;60547;48.502;8.996;2023-05-21T03:06:34;97427.63;;;12.53;95.13
72525;BME280;60547;48.502;8.996;2023-05-21T03:09:02;97427.00;;;12.49;95.58
72525;BME280;60547;48.502;8.996;2023-05-21T03:11:27;97426.53;;;12.51;95.65
72525;BME280;60547;48.502;8.996;2023-05-21T03:13:53;97422.66;;;12.48;95.59
72525;BME280;60547;48.502;8.996;2023-05-21T03:16:18;97421.72;;;12.42;95.85
72525;BME280;60547;48.502;8.996;2023-05-21T03:18:44;97416.13;;;12.42;95.61
72525;BME280;60547;48.502;8.996;2023-05-21T03:21:09;97424.50;;;12.42;95.70
72525;BME280;60547;48.502;8.996;2023-05-21T03:23:38;97416.13;;;12.42;95.59
72525;BME280;60547;48.502;8.996;2023-05-21T03:26:04;97419.38;;;12.41;95.64
72525;BME280;60547;48.502;8.996;2023-05-21T03:28:30;97421.88;;;12.39;95.83
72525;BME280;60547;48.502;8.996;2023-05-21T03:30:55;97417.38;;;12.41;95.76
72525;BME280;60547;48.502;8.996;2023-05-21T03:33:21;97419.84;;;12.39;95.87
72525;BME280;60547;48.502;8.996;2023-05-21T03:35:47;97422.31;;;12.37;95.25
72525;BME280;60547;48.502;8.996;2023-05-21T03:38:12;97419.69;;;12.34;95.41
72525;BME280;60547;48.502;8.996;2023-05-21T03:40:38;97426.03;;;12.34;96.04
72525;BME280;60547;48.502;8.996;2023-05-21T03:43:03;97427.28;;;12.33;95.41
72525;BME280;60547;48.502;8.996;2023-05-21T03:45:29;97418.41;;;12.25;96.36
72525;BME280;60547;48.502;8.996;2023-05-21T03:47:54;97428.00;;;12.24;96.72
72525;BME280;60547;48.502;8.996;2023-05-21T03:50:20;97423.22;;;12.25;97.11
72525;BME280;60547;48.502;8.996;2023-05-21T03:52:45;97417.63;;;12.25;96.58
72525;BME280;60547;48.502;8.996;2023-05-21T03:55:11;97423.84;;;12.29;95.81
72525;BME280;60547;48.502;8.996;2023-05-21T03:57:36;97418.25;;;12.29;95.83
72525;BME280;60547;48.502;8.996;2023-05-21T04:00:02;97427.41;;;12.29;96.16
72525;BME280;60547;48.502;8.996;2023-05-21T04:02:30;97427.09;;;12.27;96.54
72525;BME280;60547;48.502;8.996;2023-05-21T04:04:56;97425.53;;;12.26;96.78
72525;BME280;60547;48.502;8.996;2023-05-21T04:07:22;97430.81;;;12.24;96.78
72525;BME280;60547;48.502;8.996;2023-05-21T04:09:48;97423.22;;;12.25;96.46
72525;BME280;60547;48.502;8.996;2023-05-21T04:12:13;97428.19;;;12.30;96.25
72525;BME280;60547;48.502;8.996;2023-05-21T04:14:39;97427.72;;;12.32;96.19
72525;BME280;60547;48.502;8.996;2023-05-21T04:17:05;97433.00;;;12.29;96.33
72525;BME280;60547;48.502;8.996;2023-05-21T04:19:31;97449.28;;;12.31;96.33
72525;BME280;60547;48.502;8.996;2023-05-21T04:21:56;97435.31;;;12.31;96.36
72525;BME280;60547;48.502;8.996;2023-05-21T04:24:25;97446.81;;;12.33;96.55
72525;BME280;60547;48.502;8.996;2023-05-21T04:26:50;97445.25;;;12.32;96.36
72525;BME280;60547;48.502;8.996;2023-05-21T04:29:16;97450.81;;;12.32;96.57
72525;BME280;60547;48.502;8.996;2023-05-21T04:31:48;97451.44;;;12.27;96.90
72525;BME280;60547;48.502;8.996;2023-05-21T04:34:14;97460.13;;;12.29;97.15
72525;BME280;60547;48.502;8.996;2023-05-21T04:36:46;97463.53;;;12.33;96.89
72525;BME280;60547;48.502;8.996;2023-05-21T04:39:12;97462.31;;;12.34;97.11
72525;BME280;60547;48.502;8.996;2023-05-21T04:41:38;97464.31;;;12.34;96.44
72525;BME280;60547;48.502;8.996;2023-05-21T04:44:07;97468.66;;;12.35;97.06
72525;BME280;60547;48.502;8.996;2023-05-21T04:46:33;97470.06;;;12.39;96.64
72525;BME280;60547;48.502;8.996;2023-05-21T04:49:02;97471.94;;;12.42;96.50
72525;BME280;60547;48.502;8.996;2023-05-21T04:51:29;97475.38;;;12.46;96.62
72525;BME280;60547;48.502;8.996;2023-05-21T04:53:55;97477.88;;;12.53;96.48
72525;BME280;60547;48.502;8.996;2023-05-21T04:56:23;97474.00;;;12.51;97.07
72525;BME280;60547;48.502;8.996;2023-05-21T04:58:52;97481.31;;;12.57;97.12
72525;BME280;60547;48.502;8.996;2023-05-21T05:01:19;97471.97;;;12.51;97.06
72525;BME280;60547;48.502;8.996;2023-05-21T05:03:47;97486.59;;;12.65;96.42
72525;BME280;60547;48.502;8.996;2023-05-21T05:06:13;97480.09;;;12.68;95.99
72525;BME280;60547;48.502;8.996;2023-05-21T05:08:38;97481.97;;;12.71;96.47
72525;BME280;60547;48.502;8.996;2023-05-21T05:11:04;97481.66;;;12.78;95.99
72525;BME280;60547;48.502;8.996;2023-05-21T05:13:30;97480.91;;;12.77;96.07
72525;BME280;60547;48.502;8.996;2023-05-21T05:15:55;97484.78;;;12.80;96.10
72525;BME280;60547;48.502;8.996;2023-05-21T05:18:22;97479.97;;;12.80;96.13
72525;BME280;60547;48.502;8.996;2023-05-21T05:20:47;97482.94;;;12.86;96.02
72525;BME280;60547;48.502;8.996;2023-05-21T05:23:13;97482.94;;;12.86;95.86
72525;BME280;60547;48.502;8.996;2023-05-21T05:25:38;97481.38;;;12.85;95.68
72525;BME280;60547;48.502;8.996;2023-05-21T05:28:05;97484.78;;;12.89;95.35
72525;BME280;60547;48.502;8.996;2023-05-21T05:30:31;97468.34;;;12.91;95.40
72525;BME280;60547;48.502;8.996;2023-05-21T05:32:57;97479.69;;;12.97;95.93
72525;BME280;60547;48.502;8.996;2023-05-21T05:35:22;97483.88;;;13.01;95.64
72525;BME280;60547;48.502;8.996;2023-05-21T05:37:48;97473.81;;;13.04;95.35
72525;BME280;60547;48.502;8.996;2023-05-21T05:40:13;97471.00;;;13.04;95.15
72525;BME280;60547;48.502;8.996;2023-05-21T05:42:39;97470.56;;;13.05;94.85
72525;BME280;60547;48.502;8.996;2023-05-21T05:45:05;97473.97;;;13.09;94.96
72525;BME280;60547;48.502;8.996;2023-05-21T05:47:30;97474.59;;;13.13;94.65
72525;BME280;60547;48.502;8.996;2023-05-21T05:49:56;97480.84;;;13.17;94.48
72525;BME280;60547;48.502;8.996;2023-05-21T05:52:21;97473.53;;;13.20;94.88
72525;BME280;60547;48.502;8.996;2023-05-21T05:54:47;97470.13;;;13.25;94.32
72525;BME280;60547;48.502;8.996;2023-05-21T05:57:12;97478.66;;;13.31;93.65
72525;BME280;60547;48.502;8.996;2023-05-21T05:59:38;97484.72;;;13.38;92.96
72525;BME280;60547;48.502;8.996;2023-05-21T06:02:03;97476.34;;;13.38;93.15
72525;BME280;60547;48.502;8.996;2023-05-21T06:04:29;97483.03;;;13.41;93.04
72525;BME280;60547;48.502;8.996;2023-05-21T06:06:55;97484.41;;;13.45;92.56
72525;BME280;60547;48.502;8.996;2023-05-21T06:09:24;97478.03;;;13.45;92.55
72525;BME280;60547;48.502;8.996;2023-05-21T06:11:50;97483.31;;;13.52;92.36
72525;BME280;60547;48.502;8.996;2023-05-21T06:14:15;97482.38;;;13.55;91.86
72525;BME280;60547;48.502;8.996;2023-05-21T06:16:41;97483.31;;;13.61;91.98
72525;BME280;60547;48.502;8.996;2023-05-21T06:19:06;97489.69;;;13.71;91.94
72525;BME280;60547;48.502;8.996;2023-05-21T06:21:32;97489.53;;;13.74;91.67
72525;BME280;60547;48.502;8.996;2023-05-21T06:23:58;97484.84;;;13.80;91.26
72525;BME280;60547;48.502;8.996;2023-05-21T06:26:23;97481.41;;;13.85;90.69
72525;BME280;60547;48.502;8.996;2023-05-21T06:28:49;97479.06;;;13.93;90.54
72525;BME280;60547;48.502;8.996;2023-05-21T06:31:14;97488.84;;;14.07;91.16
72525;BME280;60547;48.502;8.996;2023-05-21T06:33:40;97482.75;;;14.17;91.14
72525;BME280;60547;48.502;8.996;2023-05-21T06:36:06;97491.44;;;14.19;90.89
72525;BME280;60547;48.502;8.996;2023-05-21T06:38:32;97486.28;;;14.27;90.09
72525;BME280;60547;48.502;8.996;2023-05-21T06:40:58;97488.16;;;14.30;89.79
72525;BME280;60547;48.502;8.996;2023-05-21T06:43:23;97487.69;;;14.22;89.96
72525;BME280;60547;48.502;8.996;2023-05-21T06:45:49;97481.91;;;14.35;89.89
72525;BME280;60547;48.502;8.996;2023-05-21T06:48:15;97484.69;;;14.44;88.97
72525;BME280;60547;48.502;8.996;2023-05-21T06:50:42;97480.00;;;14.50;88.29
72525;BME280;60547;48.502;8.996;2023-05-21T06:53:07;97480.13;;;14.56;89.04
72525;BME280;60547;48.502;8.996;2023-05-21T06:55:33;97484.28;;;14.70;89.43
72525;BME280;60547;48.502;8.996;2023-05-21T06:57:58;97474.50;;;14.89;88.67
72525;BME280;60547;48.502;8.996;2023-05-21T07:00:24;97480.59;;;15.11;87.31
72525;BME280;60547;48.502;8.996;2023-05-21T07:02:50;97479.47;;;15.18;86.46
72525;BME280;60547;48.502;8.996;2023-05-21T07:05:15;97471.41;;;15.35;85.88
72525;BME280;60547;48.502;8.996;2023-05-21T07:07:41;97477.22;;;15.46;84.99
72525;BME280;60547;48.502;8.996;2023-05-21T07:10:07;97474.97;;;15.59;84.72
72525;BME280;60547;48.502;8.996;2023-05-21T07:12:32;97474.00;;;15.62;84.64
72525;BME280;60547;48.502;8.996;2023-05-21T07:14:58;97470.72;;;15.64;85.01
72525;BME280;60547;48.502;8.996;2023-05-21T07:17:23;97466.25;;;15.57;85.49
72525;BME280;60547;48.502;8.996;2023-05-21T07:19:49;97477.22;;;15.46;85.83
72525;BME280;60547;48.502;8.996;2023-05-21T07:22:14;97470.72;;;15.64;85.19
72525;BME280;60547;48.502;8.996;2023-05-21T07:24:40;97474.00;;;15.62;85.77
72525;BME280;60547;48.502;8.996;2023-05-21T07:27:05;97481.97;;;15.93;85.82
72525;BME280;60547;48.502;8.996;2023-05-21T07:29:32;97484.69;;;16.17;84.80
72525;BME280;60547;48.502;8.996;2023-05-21T07:31:58;97478.69;;;16.24;83.91
72525;BME280;60547;48.502;8.996;2023-05-21T07:34:25;97468.19;;;16.39;82.92
72525;BME280;60547;48.502;8.996;2023-05-21T07:36:51;97470.03;;;16.42;83.07
72525;BME280;60547;48.502;8.996;2023-05-21T07:39:17;97460.63;;;16.45;84.16
72525;BME280;60547;48.502;8.996;2023-05-21T07:41:42;97469.16;;;16.66;84.08
72525;BME280;60547;48.502;8.996;2023-05-21T07:44:08;97459.63;;;16.78;82.75
72525;BME280;60547;48.502;8.996;2023-05-21T07:46:34;97457.03;;;16.95;83.00
72525;BME280;60547;48.502;8.996;2023-05-21T07:48:59;97459.34;;;16.96;81.58
72525;BME280;60547;48.502;8.996;2023-05-21T07:51:25;97466.69;;;17.08;80.85
72525;BME280;60547;48.502;8.996;2023-05-21T07:53:51;97456.56;;;17.17;80.87
72525;BME280;60547;48.502;8.996;2023-05-21T07:56:17;97453.03;;;17.22;81.14
72525;BME280;60547;48.502;8.996;2023-05-21T07:58:42;97467.94;;;17.28;80.47
72525;BME280;60547;48.502;8.996;2023-05-21T08:01:12;97457.13;;;17.21;81.03
72525;BME280;60547;48.502;8.996;2023-05-21T08:03:38;97471.94;;;17.21;80.92
72525;BME280;60547;48.502;8.996;2023-05-21T08:06:03;97469.63;;;17.40;80.43
72525;BME280;60547;48.502;8.996;2023-05-21T08:08:29;97466.44;;;17.53;78.78
72525;BME280;60547;48.502;8.996;2023-05-21T08:10:54;97456.09;;;17.64;78.01
72525;BME280;60547;48.502;8.996;2023-05-21T08:13:20;97447.63;;;17.85;78.99
72525;BME280;60547;48.502;8.996;2023-05-21T08:15:47;97458.81;;;18.05;78.05
72525;BME280;60547;48.502;8.996;2023-05-21T08:18:12;97454.81;;;17.86;78.15
72525;BME280;60547;48.502;8.996;2023-05-21T08:20:38;97456.28;;;18.07;78.67
72525;BME280;60547;48.502;8.996;2023-05-21T08:23:04;97458.19;;;18.21;75.38
72525;BME280;60547;48.502;8.996;2023-05-21T08:25:29;97457.25;;;18.30;75.02
72525;BME280;60547;48.502;8.996;2023-05-21T08:27:55;97456.84;;;18.43;74.82
72525;BME280;60547;48.502;8.996;2023-05-21T08:30:20;97453.84;;;18.52;74.40
72525;BME280;60547;48.502;8.996;2023-05-21T08:32:47;97456.06;;;18.74;74.94
72525;BME280;60547;48.502;8.996;2023-05-21T08:35:12;97455.41;;;18.90;74.25
72525;BME280;60547;48.502;8.996;2023-05-21T08:37:38;97448.63;;;18.70;72.94
72525;BME280;60547;48.502;8.996;2023-05-21T08:40:04;97454.09;;;18.85;73.16
72525;BME280;60547;48.502;8.996;2023-05-21T08:42:49;97444.94;;;19.01;73.04
72525;BME280;60547;48.502;8.996;2023-05-21T08:45:22;97439.59;;;19.09;73.97
72525;BME280;60547;48.502;8.996;2023-05-21T08:47:53;97453.59;;;18.87;72.85
72525;BME280;60547;48.502;8.996;2023-05-21T08:50:19;97442.38;;;18.98;73.40
72525;BME280;60547;48.502;8.996;2023-05-21T08:52:46;97453.44;;;19.07;75.28
72525;BME280;60547;48.502;8.996;2023-05-21T08:55:11;97451.66;;;19.10;72.78
72525;BME280;60547;48.502;8.996;2023-05-21T08:57:41;97446.69;;;18.93;73.21
72525;BME280;60547;48.502;8.996;2023-05-21T09:00:07;97446.44;;;18.91;73.82
72525;BME280;60547;48.502;8.996;2023-05-21T09:02:33;97445.63;;;18.85;73.13
72525;BME280;60547;48.502;8.996;2023-05-21T09:04:59;97454.53;;;18.73;74.72
72525;BME280;60547;48.502;8.996;2023-05-21T09:07:27;97449.19;;;18.80;74.80
72525;BME280;60547;48.502;8.996;2023-05-21T09:09:56;97457.91;;;18.82;73.22
72525;BME280;60547;48.502;8.996;2023-05-21T09:12:23;97455.22;;;19.04;71.59
72525;BME280;60547;48.502;8.996;2023-05-21T09:14:50;97449.06;;;19.06;70.81
72525;BME280;60547;48.502;8.996;2023-05-21T09:17:16;97443.81;;;19.36;70.16
72525;BME280;60547;48.502;8.996;2023-05-21T09:20:10;97448.31;;;19.71;71.05
72525;BME280;60547;48.502;8.996;2023-05-21T09:22:41;97445.25;;;19.80;68.75
72525;BME280;60547;48.502;8.996;2023-05-21T09:25:08;97447.59;;;19.87;64.89
72525;BME280;60547;48.502;8.996;2023-05-21T09:27:34;97445.00;;;19.89;65.27
72525;BME280;60547;48.502;8.996;2023-05-21T09:30:04;97443.25;;;20.08;64.24
72525;BME280;60547;48.502;8.996;2023-05-21T09:32:30;97438.34;;;19.97;65.39
72525;BME280;60547;48.502;8.996;2023-05-21T09:34:56;97438.38;;;20.14;64.07
72525;BME280;60547;48.502;8.996;2023-05-21T09:37:21;97439.13;;;20.15;63.90
72525;BME280;60547;48.502;8.996;2023-05-21T09:39:47;97435.78;;;20.11;63.37
72525;BME280;60547;48.502;8.996;2023-05-21T09:42:13;97440.16;;;20.17;64.44
72525;BME280;60547;48.502;8.996;2023-05-21T09:44:42;97442.47;;;20.02;65.25
72525;BME280;60547;48.502;8.996;2023-05-21T09:47:07;97432.19;;;20.21;65.27
72525;BME280;60547;48.502;8.996;2023-05-21T09:49:36;97432.19;;;20.27;66.44
72525;BME280;60547;48.502;8.996;2023-05-21T09:52:01;97436.56;;;20.22;64.69
72525;BME280;60547;48.502;8.996;2023-05-21T09:54:31;97433.50;;;20.31;65.95
72525;BME280;60547;48.502;8.996;2023-05-21T09:56:59;97430.16;;;20.44;65.54
72525;BME280;60547;48.502;8.996;2023-05-21T09:59:39;97430.16;;;20.50;64.10
72525;BME280;60547;48.502;8.996;2023-05-21T10:02:19;97423.97;;;20.68;63.10
72525;BME280;60547;48.502;8.996;2023-05-21T10:04:48;97426.53;;;20.77;63.37
72525;BME280;60547;48.502;8.996;2023-05-21T10:07:17;97435.50;;;20.92;64.26
72525;BME280;60547;48.502;8.996;2023-05-21T10:09:45;97425.69;;;21.05;61.68
72525;BME280;60547;48.502;8.996;2023-05-21T10:12:12;97433.13;;;21.08;61.13
72525;BME280;60547;48.502;8.996;2023-05-21T10:14:39;97430.50;;;21.21;61.05
72525;BME280;60547;48.502;8.996;2023-05-21T10:17:06;97422.22;;;21.40;60.42
72525;BME280;60547;48.502;8.996;2023-05-21T10:19:32;97425.81;;;21.46;63.19
72525;BME280;60547;48.502;8.996;2023-05-21T10:22:00;97435.31;;;21.48;59.74
72525;BME280;60547;48.502;8.996;2023-05-21T10:24:28;97425.22;;;21.58;58.86
72525;BME280;60547;48.502;8.996;2023-05-21T10:26:55;97422.81;;;21.74;58.76
72525;BME280;60547;48.502;8.996;2023-05-21T10:29:22;97418.13;;;21.82;58.34
72525;BME280;60547;48.502;8.996;2023-05-21T10:31:51;97417.78;;;21.97;58.38
72525;BME280;60547;48.502;8.996;2023-05-21T10:34:18;97421.81;;;22.12;58.67
72525;BME280;60547;48.502;8.996;2023-05-21T10:36:44;97419.09;;;22.31;57.87
72525;BME280;60547;48.502;8.996;2023-05-21T10:39:13;97410.53;;;22.37;57.41
72525;BME280;60547;48.502;8.996;2023-05-21T10:41:59;97418.31;;;22.61;57.37
72525;BME280;60547;48.502;8.996;2023-05-21T10:44:42;97419.19;;;22.74;56.47
72525;BME280;60547;48.502;8.996;2023-05-21T10:50:27;97416.03;;;22.83;57.96
72525;BME280;60547;48.502;8.996;2023-05-21T10:55:54;97403.91;;;23.07;58.61
72525;BME280;60547;48.502;8.996;2023-05-21T11:01:38;97399.03;;;22.78;57.20
72525;BME280;60547;48.502;8.996;2023-05-21T11:04:05;97406.06;;;22.47;56.97
72525;BME280;60547;48.502;8.996;2023-05-21T11:06:31;97400.91;;;22.15;58.21
72525;BME280;60547;48.502;8.996;2023-05-21T11:09:01;97399.63;;;22.16;58.67
72525;BME280;60547;48.502;8.996;2023-05-21T11:11:42;97405.28;;;22.16;58.19
72525;BME280;60547;48.502;8.996;2023-05-21T11:14:37;97408.13;;;22.16;57.92
72525;BME280;60547;48.502;8.996;2023-05-21T11:17:10;97404.50;;;22.16;57.80
72525;BME280;60547;48.502;8.996;2023-05-21T11:19:40;97409.03;;;22.30;58.39
72525;BME280;60547;48.502;8.996;2023-05-21T11:22:08;97400.47;;;22.36;57.40
72525;BME280;60547;48.502;8.996;2023-05-21T11:24:39;97401.19;;;22.42;57.62
72525;BME280;60547;48.502;8.996;2023-05-21T11:27:05;97407.00;;;22.55;58.36
72525;BME280;60547;48.502;8.996;2023-05-21T11:29:38;97403.00;;;22.69;57.36
72525;BME280;60547;48.502;8.996;2023-05-21T11:32:06;97404.22;;;22.79;56.23
72525;BME280;60547;48.502;8.996;2023-05-21T11:34:37;97394.19;;;22.48;56.07
72525;BME280;60547;48.502;8.996;2023-05-21T11:37:33;97402.56;;;22.35;56.26
72525;BME280;60547;48.502;8.996;2023-05-21T11:40:21;97404.94;;;22.26;56.81
72525;BME280;60547;48.502;8.996;2023-05-21T11:42:51;97404.66;;;22.29;56.59
72525;BME280;60547;48.502;8.996;2023-05-21T11:45:18;97400.00;;;22.32;56.13
72525;BME280;60547;48.502;8.996;2023-05-21T11:47:45;97402.66;;;22.24;55.80
72525;BME280;60547;48.502;8.996;2023-05-21T11:50:12;97400.44;;;22.41;55.89
72525;BME280;60547;48.502;8.996;2023-05-21T11:52:39;97402.44;;;22.46;56.43
72525;BME280;60547;48.502;8.996;2023-05-21T11:55:05;97407.72;;;22.61;55.91
72525;BME280;60547;48.502;8.996;2023-05-21T11:57:31;97404.78;;;22.72;55.66
72525;BME280;60547;48.502;8.996;2023-05-21T11:59:58;97407.03;;;23.04;55.77
72525;BME280;60547;48.502;8.996;2023-05-21T12:02:26;97403.72;;;23.00;53.80
72525;BME280;60547;48.502;8.996;2023-05-21T12:04:52;97400.78;;;22.86;56.70
72525;BME280;60547;48.502;8.996;2023-05-21T12:07:19;97397.91;;;23.11;56.65
72525;BME280;60547;48.502;8.996;2023-05-21T12:09:48;97398.88;;;23.38;54.02
72525;BME280;60547;48.502;8.996;2023-05-21T12:12:16;97408.91;;;23.63;53.54
72525;BME280;60547;48.502;8.996;2023-05-21T12:14:50;97399.38;;;23.79;53.10
72525;BME280;60547;48.502;8.996;2023-05-21T12:17:17;97403.63;;;24.05;52.19
72525;BME280;60547;48.502;8.996;2023-05-21T12:19:44;97404.00;;;24.14;51.11
72525;BME280;60547;48.502;8.996;2023-05-21T12:22:10;97387.16;;;24.16;49.21
72525;BME280;60547;48.502;8.996;2023-05-21T12:24:37;97393.19;;;24.58;49.23
72525;BME280;60547;48.502;8.996;2023-05-21T12:27:04;97391.69;;;24.70;48.35
72525;BME280;60547;48.502;8.996;2023-05-21T12:29:35;97395.53;;;24.86;48.35
72525;BME280;60547;48.502;8.996;2023-05-21T12:32:03;97401.09;;;24.78;47.83
72525;BME280;60547;48.502;8.996;2023-05-21T12:34:50;97397.59;;;24.86;46.89
72525;BME280;60547;48.502;8.996;2023-05-21T12:37:27;97400.88;;;24.76;46.38
72525;BME280;60547;48.502;8.996;2023-05-21T12:39:58;97397.16;;;24.68;46.10
72525;BME280;60547;48.502;8.996;2023-05-21T12:42:31;97406.88;;;24.60;46.14
72525;BME280;60547;48.502;8.996;2023-05-21T12:45:09;97397.84;;;24.88;47.20
72525;BME280;60547;48.502;8.996;2023-05-21T12:47:35;97397.66;;;24.99;46.64
72525;BME280;60547;48.502;8.996;2023-05-21T12:50:07;97400.72;;;25.01;46.67
72525;BME280;60547;48.502;8.996;2023-05-21T12:52:33;97408.38;;;25.19;46.71
72525;BME280;60547;48.502;8.996;2023-05-21T12:54:59;97396.81;;;25.51;46.02
72525;BME280;60547;48.502;8.996;2023-05-21T12:57:35;97406.50;;;25.35;44.36
72525;BME280;60547;48.502;8.996;2023-05-21T13:00:04;97411.19;;;24.93;45.37
72525;BME280;60547;48.502;8.996;2023-05-21T13:02:40;97397.09;;;25.00;45.73
72525;BME280;60547;48.502;8.996;2023-05-21T13:05:08;97401.25;;;24.99;45.61
72525;BME280;60547;48.502;8.996;2023-05-21T13:07:36;97415.09;;;24.63;46.06
72525;BME280;60547;48.502;8.996;2023-05-21T13:10:03;97398.75;;;24.51;46.00
72525;BME280;60547;48.502;8.996;2023-05-21T13:12:30;97397.75;;;24.35;46.31
72525;BME280;60547;48.502;8.996;2023-05-21T13:14:58;97413.59;;;24.30;46.60